sensor_id;sensor_type;location;lat;lon;timestamp;pressure;altitude;pressure_sealevel;temperature;humidity
34241;BME280;20503;50.200;19.508;2022-12-18T00:04:52;103163.19;;;-4.62;100.00
34241;BME280;20503;50.200;19.508;2022-12-18T00:10:03;103161.31;;;-4.60;100.00
34241;BME280;20503;50.200;19.508;2022-12-18T00:15:14;103172.83;;;-4.58;100.00
34241;BME280;20503;50.200;19.508;2022-12-18T00:20:24;103174.63;;;-4.59;100.00
34241;BME280;20503;50.200;19.508;2022-12-18T00:27:10;103189.77;;;-4.59;100.00
34241;BME280;20503;50.200;19.508;2022-12-18T00:32:21;103188.07;;;-4.62;100.00
34241;BME280;20503;50.200;19.508;2022-12-18T00:37:33;103192.41;;;-4.58;100.00
34241;BME280;20503;50.200;19.508;2022-12-18T00:42:42;103191.48;;;-4.57;100.00
34241;BME280;20503;50.200;19.508;2022-12-18T00:47:57;103200.30;;;-4.55;100.00
34241;BME280;20503;50.200;19.508;2022-12-18T00:53:04;103222.38;;;-4.50;100.00
34241;BME280;20503;50.200;19.508;2022-12-18T00:58:16;103220.72;;;-4.52;100.00
34241;BME280;20503;50.200;19.508;2022-12-18T01:03:26;103229.69;;;-4.55;100.00
34241;BME280;20503;50.200;19.508;2022-12-18T01:08:36;103233.77;;;-4.45;100.00
34241;BME280;20503;50.200;19.508;2022-12-18T01:13:47;103236.56;;;-4.48;100.00
34241;BME280;20503;50.200;19.508;2022-12-18T01:18:58;103243.98;;;-4.56;100.00
34241;BME280;20503;50.200;19.508;2022-12-18T01:24:11;103234.88;;;-4.50;100.00
34241;BME280;20503;50.200;19.508;2022-12-18T01:29:21;103251.59;;;-4.44;100.00
34241;BME280;20503;50.200;19.508;2022-12-18T01:34:30;103251.59;;;-4.44;100.00
34241;BME280;20503;50.200;19.508;2022-12-18T01:39:41;103255.99;;;-4.43;100.00
34241;BME280;20503;50.200;19.508;2022-12-18T01:45:02;103239.88;;;-4.41;100.00
34241;BME280;20503;50.200;19.508;2022-12-18T01:55:23;103256.03;;;-4.44;100.00
34241;BME280;20503;50.200;19.508;2022-12-18T02:00:27;103274.88;;;-4.49;100.00
34241;BME280;20503;50.200;19.508;2022-12-18T02:05:47;103286.56;;;-4.51;100.00
34241;BME280;20503;50.200;19.508;2022-12-18T02:11:05;103291.92;;;-4.51;100.00
34241;BME280;20503;50.200;19.508;2022-12-18T02:16:20;103277.41;;;-4.44;100.00
34241;BME280;20503;50.200;19.508;2022-12-18T02:26:48;103311.00;;;-4.37;100.00
34241;BME280;20503;50.200;19.508;2022-12-18T02:31:52;103314.52;;;-4.35;100.00
34241;BME280;20503;50.200;19.508;2022-12-18T02:36:55;103317.34;;;-4.40;100.00
34241;BME280;20503;50.200;19.508;2022-12-18T02:41:59;103312.11;;;-4.43;100.00
34241;BME280;20503;50.200;19.508;2022-12-18T02:47:10;103329.66;;;-4.36;100.00
34241;BME280;20503;50.200;19.508;2022-12-18T02:52:23;103338.50;;;-4.34;100.00
34241;BME280;20503;50.200;19.508;2022-12-18T02:57:34;103346.52;;;-4.34;100.00
34241;BME280;20503;50.200;19.508;2022-12-18T03:07:52;103355.77;;;-4.44;100.00
34241;BME280;20503;50.200;19.508;2022-12-18T03:13:19;103365.63;;;-4.46;100.00
34241;BME280;20503;50.200;19.508;2022-12-18T03:18:18;103362.23;;;-4.51;100.00
34241;BME280;20503;50.200;19.508;2022-12-18T03:23:27;103358.46;;;-4.44;100.00
34241;BME280;20503;50.200;19.508;2022-12-18T03:28:33;103365.72;;;-4.49;100.00
34241;BME280;20503;50.200;19.508;2022-12-18T03:34:03;103372.98;;;-4.52;100.00
34241;BME280;20503;50.200;19.508;2022-12-18T03:38:55;103381.82;;;-4.50;100.00
34241;BME280;20503;50.200;19.508;2022-12-18T03:54:28;103391.27;;;-4.40;100.00
34241;BME280;20503;50.200;19.508;2022-12-18T03:59:33;103400.27;;;-4.43;100.00
34241;BME280;20503;50.200;19.508;2022-12-18T04:04:46;103404.53;;;-4.37;100.00
34241;BME280;20503;50.200;19.508;2022-12-18T04:09:56;103425.15;;;-4.41;100.00
34241;BME280;20503;50.200;19.508;2022-12-18T04:15:06;103418.73;;;-4.35;100.00
34241;BME280;20503;50.200;19.508;2022-12-18T04:20:16;103425.96;;;-4.39;100.00
34241;BME280;20503;50.200;19.508;2022-12-18T04:25:27;103430.27;;;-4.35;100.00
34241;BME280;20503;50.200;19.508;2022-12-18T04:30:37;103436.56;;;-4.36;100.00
34241;BME280;20503;50.200;19.508;2022-12-18T04:35:50;103444.95;;;-4.48;100.00
34241;BME280;20503;50.200;19.508;2022-12-18T04:40:58;103455.93;;;-4.57;100.00
34241;BME280;20503;50.200;19.508;2022-12-18T04:46:10;103457.79;;;-4.59;100.00
34241;BME280;20503;50.200;19.508;2022-12-18T04:51:22;103468.40;;;-4.57;100.00
34241;BME280;20503;50.200;19.508;2022-12-18T04:56:32;103483.57;;;-4.58;100.00
34241;BME280;20503;50.200;19.508;2022-12-18T05:01:43;103491.62;;;-4.59;100.00
34241;BME280;20503;50.200;19.508;2022-12-18T05:06:53;103493.20;;;-4.52;100.00
34241;BME280;20503;50.200;19.508;2022-12-18T05:12:04;103491.49;;;-4.55;100.00
34241;BME280;20503;50.200;19.508;2022-12-18T05:17:14;103484.34;;;-4.54;100.00
34241;BME280;20503;50.200;19.508;2022-12-18T05:22:25;103485.35;;;-4.58;100.00
34241;BME280;20503;50.200;19.508;2022-12-18T05:27:36;103495.90;;;-4.54;100.00
34241;BME280;20503;50.200;19.508;2022-12-18T05:32:46;103502.08;;;-4.52;100.00
34241;BME280;20503;50.200;19.508;2022-12-18T05:37:57;103513.59;;;-4.50;100.00
34241;BME280;20503;50.200;19.508;2022-12-18T05:43:08;103512.73;;;-4.50;100.00
34241;BME280;20503;50.200;19.508;2022-12-18T05:48:20;103517.19;;;-4.51;100.00
34241;BME280;20503;50.200;19.508;2022-12-18T05:53:30;103523.55;;;-4.55;100.00
34241;BME280;20503;50.200;19.508;2022-12-18T05:58:41;103519.29;;;-4.62;100.00
34241;BME280;20503;50.200;19.508;2022-12-18T06:03:52;103525.48;;;-4.60;100.00
34241;BME280;20503;50.200;19.508;2022-12-18T06:09:03;103533.57;;;-4.63;100.00
34241;BME280;20503;50.200;19.508;2022-12-18T06:14:13;103538.76;;;-4.57;100.00
34241;BME280;20503;50.200;19.508;2022-12-18T06:19:24;103556.53;;;-4.56;100.00
34241;BME280;20503;50.200;19.508;2022-12-18T06:24:34;103552.95;;;-4.55;100.00
34241;BME280;20503;50.200;19.508;2022-12-18T06:29:45;103560.02;;;-4.54;100.00
34241;BME280;20503;50.200;19.508;2022-12-18T06:34:56;103572.34;;;-4.48;100.00
34241;BME280;20503;50.200;19.508;2022-12-18T06:40:08;103568.04;;;-4.54;100.00
34241;BME280;20503;50.200;19.508;2022-12-18T06:45:18;103578.45;;;-3.87;100.00
34241;BME280;20503;50.200;19.508;2022-12-18T06:50:29;103578.34;;;-3.57;100.00
34241;BME280;20503;50.200;19.508;2022-12-18T06:55:40;103591.37;;;-4.01;100.00
34241;BME280;20503;50.200;19.508;2022-12-18T07:00:50;103599.02;;;-3.89;100.00
34241;BME280;20503;50.200;19.508;2022-12-18T07:06:02;103611.57;;;-3.91;100.00
34241;BME280;20503;50.200;19.508;2022-12-18T07:11:12;103617.95;;;-3.95;100.00
34241;BME280;20503;50.200;19.508;2022-12-18T07:16:24;103619.68;;;-4.23;100.00
34241;BME280;20503;50.200;19.508;2022-12-18T07:21:35;103632.85;;;-4.17;100.00
34241;BME280;20503;50.200;19.508;2022-12-18T07:26:48;103639.22;;;-4.21;100.00
34241;BME280;20503;50.200;19.508;2022-12-18T07:31:56;103652.37;;;-4.13;100.00
34241;BME280;20503;50.200;19.508;2022-12-18T07:37:06;103652.08;;;-4.04;100.00
34241;BME280;20503;50.200;19.508;2022-12-18T07:42:17;103664.89;;;-4.15;100.00
34241;BME280;20503;50.200;19.508;2022-12-18T07:47:35;103654.75;;;-4.04;100.00
34241;BME280;20503;50.200;19.508;2022-12-18T07:52:39;103673.07;;;-3.91;100.00
34241;BME280;20503;50.200;19.508;2022-12-18T07:57:51;103662.18;;;-3.85;100.00
34241;BME280;20503;50.200;19.508;2022-12-18T08:03:00;103662.05;;;-3.80;100.00
34241;BME280;20503;50.200;19.508;2022-12-18T08:08:11;103661.95;;;-3.77;100.00
34241;BME280;20503;50.200;19.508;2022-12-18T08:13:22;103668.20;;;-3.77;100.00
34241;BME280;20503;50.200;19.508;2022-12-18T08:18:33;103667.73;;;-3.91;100.00
34241;BME280;20503;50.200;19.508;2022-12-18T08:23:43;103673.45;;;-3.74;100.00
34241;BME280;20503;50.200;19.508;2022-12-18T08:28:59;103681.34;;;-3.69;100.00
34241;BME280;20503;50.200;19.508;2022-12-18T08:34:05;103679.06;;;-3.83;100.00
34241;BME280;20503;50.200;19.508;2022-12-18T08:39:16;103682.63;;;-3.54;100.00
34241;BME280;20503;50.200;19.508;2022-12-18T08:44:26;103684.30;;;-3.51;100.00
34241;BME280;20503;50.200;19.508;2022-12-18T08:49:42;103680.42;;;-3.68;100.00
34241;BME280;20503;50.200;19.508;2022-12-18T08:54:48;103705.45;;;-3.71;100.00
34241;BME280;20503;50.200;19.508;2022-12-18T08:59:59;103714.30;;;-3.69;100.00
34241;BME280;20503;50.200;19.508;2022-12-18T09:05:10;103723.00;;;-3.91;100.00
34241;BME280;20503;50.200;19.508;2022-12-18T09:10:20;103718.01;;;-3.73;100.00
34241;BME280;20503;50.200;19.508;2022-12-18T09:15:32;103721.38;;;-3.38;100.00
34241;BME280;20503;50.200;19.508;2022-12-18T09:20:43;103723.50;;;-3.21;100.00
34241;BME280;20503;50.200;19.508;2022-12-18T09:26:00;103733.41;;;-3.25;100.00
34241;BME280;20503;50.200;19.508;2022-12-18T09:31:05;103726.48;;;-3.03;100.00
34241;BME280;20503;50.200;19.508;2022-12-18T09:36:16;103736.17;;;-2.99;100.00
34241;BME280;20503;50.200;19.508;2022-12-18T09:46:54;103725.55;;;-3.02;100.00
34241;BME280;20503;50.200;19.508;2022-12-18T09:51:54;103722.05;;;-2.78;100.00
34241;BME280;20503;50.200;19.508;2022-12-18T09:57:01;103727.21;;;-2.72;100.00
34241;BME280;20503;50.200;19.508;2022-12-18T10:02:18;103752.20;;;-2.71;100.00
34241;BME280;20503;50.200;19.508;2022-12-18T10:17:58;103731.51;;;-3.20;99.58
34241;BME280;20503;50.200;19.508;2022-12-18T10:28:18;103724.48;;;-2.96;100.00
34241;BME280;20503;50.200;19.508;2022-12-18T10:33:24;103724.79;;;-2.79;100.00
34241;BME280;20503;50.200;19.508;2022-12-18T10:38:31;103733.16;;;-3.45;98.55
34241;BME280;20503;50.200;19.508;2022-12-18T10:43:38;103731.60;;;-3.80;99.85
34241;BME280;20503;50.200;19.508;2022-12-18T10:48:54;103729.30;;;-3.35;99.68
34241;BME280;20503;50.200;19.508;2022-12-18T10:54:01;103721.75;;;-3.22;100.00
34241;BME280;20503;50.200;19.508;2022-12-18T10:59:09;103710.11;;;-2.68;100.00
34241;BME280;20503;50.200;19.508;2022-12-18T11:04:24;103712.07;;;-2.48;100.00
34241;BME280;20503;50.200;19.508;2022-12-18T11:09:35;103668.53;;;-2.79;98.03
34241;BME280;20503;50.200;19.508;2022-12-18T11:14:46;103694.05;;;-2.43;97.78
34241;BME280;20503;50.200;19.508;2022-12-18T11:19:59;103693.58;;;-2.31;96.84
34241;BME280;20503;50.200;19.508;2022-12-18T11:30:22;103684.98;;;-2.16;96.75
34241;BME280;20503;50.200;19.508;2022-12-18T11:35:38;103689.91;;;-2.04;95.31
34241;BME280;20503;50.200;19.508;2022-12-18T11:40:45;103691.28;;;-2.42;94.84
34241;BME280;20503;50.200;19.508;2022-12-18T11:51:11;103687.16;;;-3.02;95.48
34241;BME280;20503;50.200;19.508;2022-12-18T12:01:37;103700.46;;;-2.73;97.15
34241;BME280;20503;50.200;19.508;2022-12-18T12:06:54;103692.53;;;-2.76;95.73
34241;BME280;20503;50.200;19.508;2022-12-18T12:27:49;103703.38;;;-3.07;98.42
34241;BME280;20503;50.200;19.508;2022-12-18T12:38:14;103714.56;;;-2.68;96.61
34241;BME280;20503;50.200;19.508;2022-12-18T12:43:25;103720.72;;;-2.65;96.84
34241;BME280;20503;50.200;19.508;2022-12-18T12:53:48;103719.85;;;-2.41;97.05
34241;BME280;20503;50.200;19.508;2022-12-18T12:59:03;103721.80;;;-2.20;97.26
34241;BME280;20503;50.200;19.508;2022-12-18T13:09:20;103744.46;;;-2.54;97.34
34241;BME280;20503;50.200;19.508;2022-12-18T13:19:36;103744.13;;;-2.97;97.59
34241;BME280;20503;50.200;19.508;2022-12-18T13:24:39;103740.36;;;-3.18;98.93
34241;BME280;20503;50.200;19.508;2022-12-18T13:29:45;103750.52;;;-3.29;99.97
34241;BME280;20503;50.200;19.508;2022-12-18T13:35:10;103752.61;;;-3.38;100.00
34241;BME280;20503;50.200;19.508;2022-12-18T13:39:57;103761.89;;;-3.50;100.00
34241;BME280;20503;50.200;19.508;2022-12-18T13:45:01;103769.25;;;-3.58;100.00
34241;BME280;20503;50.200;19.508;2022-12-18T13:50:20;103763.63;;;-3.79;100.00
34241;BME280;20503;50.200;19.508;2022-12-18T13:55:19;103761.22;;;-3.86;100.00
34241;BME280;20503;50.200;19.508;2022-12-18T14:00:27;103778.41;;;-3.95;100.00
34241;BME280;20503;50.200;19.508;2022-12-18T14:05:37;103786.03;;;-4.13;100.00
34241;BME280;20503;50.200;19.508;2022-12-18T14:10:47;103790.98;;;-4.32;100.00
34241;BME280;20503;50.200;19.508;2022-12-18T14:15:57;103789.88;;;-4.57;100.00
34241;BME280;20503;50.200;19.508;2022-12-18T14:21:31;103794.42;;;-4.62;100.00
34241;BME280;20503;50.200;19.508;2022-12-18T14:26:29;103792.95;;;-4.73;100.00
34241;BME280;20503;50.200;19.508;2022-12-18T14:31:33;103785.79;;;-5.08;100.00
34241;BME280;20503;50.200;19.508;2022-12-18T14:36:40;103787.23;;;-5.31;100.00
34241;BME280;20503;50.200;19.508;2022-12-18T14:41:51;103793.64;;;-5.40;100.00
34241;BME280;20503;50.200;19.508;2022-12-18T14:47:01;103771.97;;;-5.65;100.00
34241;BME280;20503;50.200;19.508;2022-12-18T14:52:26;103790.64;;;-5.65;100.00
34241;BME280;20503;50.200;19.508;2022-12-18T14:57:36;103790.08;;;-5.79;100.00
34241;BME280;20503;50.200;19.508;2022-12-18T15:02:42;103785.20;;;-6.02;100.00
34241;BME280;20503;50.200;19.508;2022-12-18T15:07:47;103806.64;;;-6.08;100.00
34241;BME280;20503;50.200;19.508;2022-12-18T15:18:17;103819.60;;;-6.88;100.00
34241;BME280;20503;50.200;19.508;2022-12-18T15:24:13;103824.52;;;-7.22;100.00
34241;BME280;20503;50.200;19.508;2022-12-18T15:28:43;103829.23;;;-7.40;100.00
34241;BME280;20503;50.200;19.508;2022-12-18T15:39:06;103820.64;;;-7.61;100.00
34241;BME280;20503;50.200;19.508;2022-12-18T15:44:23;103835.87;;;-7.75;100.00
34241;BME280;20503;50.200;19.508;2022-12-18T15:49:29;103826.39;;;-7.99;100.00
34241;BME280;20503;50.200;19.508;2022-12-18T15:54:34;103823.90;;;-8.14;100.00
34241;BME280;20503;50.200;19.508;2022-12-18T15:59:49;103836.46;;;-8.26;100.00
34241;BME280;20503;50.200;19.508;2022-12-18T16:04:53;103849.88;;;-8.40;100.00
34241;BME280;20503;50.200;19.508;2022-12-18T16:09:57;103854.36;;;-8.49;100.00
34241;BME280;20503;50.200;19.508;2022-12-18T16:15:07;103861.54;;;-8.62;100.00
34241;BME280;20503;50.200;19.508;2022-12-18T16:20:19;103860.74;;;-8.71;100.00
34241;BME280;20503;50.200;19.508;2022-12-18T16:25:28;103855.73;;;-8.09;100.00
34241;BME280;20503;50.200;19.508;2022-12-18T16:30:38;103875.52;;;-7.59;100.00
34241;BME280;20503;50.200;19.508;2022-12-18T16:35:54;103871.20;;;-7.67;100.00
34241;BME280;20503;50.200;19.508;2022-12-18T16:41:01;103878.21;;;-8.43;100.00
34241;BME280;20503;50.200;19.508;2022-12-18T16:46:16;103876.80;;;-8.94;100.00
34241;BME280;20503;50.200;19.508;2022-12-18T16:51:21;103876.94;;;-9.14;100.00
34241;BME280;20503;50.200;19.508;2022-12-18T16:56:32;103885.40;;;-8.56;100.00
34241;BME280;20503;50.200;19.508;2022-12-18T17:01:43;103864.28;;;-7.83;100.00
34241;BME280;20503;50.200;19.508;2022-12-18T17:06:54;103852.82;;;-7.16;100.00
34241;BME280;20503;50.200;19.508;2022-12-18T17:12:05;103851.49;;;-6.85;100.00
34241;BME280;20503;50.200;19.508;2022-12-18T17:17:17;103846.05;;;-6.79;100.00
34241;BME280;20503;50.200;19.508;2022-12-18T17:22:26;103821.97;;;-6.70;100.00
34241;BME280;20503;50.200;19.508;2022-12-18T17:27:38;103815.86;;;-6.75;100.00
34241;BME280;20503;50.200;19.508;2022-12-18T17:32:48;103815.80;;;-6.72;100.00
34241;BME280;20503;50.200;19.508;2022-12-18T17:37:58;103810.66;;;-6.84;100.00
34241;BME280;20503;50.200;19.508;2022-12-18T17:43:10;103805.43;;;-6.90;100.00
34241;BME280;20503;50.200;19.508;2022-12-18T17:48:20;103807.27;;;-6.95;100.00
34241;BME280;20503;50.200;19.508;2022-12-18T17:53:32;103807.33;;;-6.98;100.00
34241;BME280;20503;50.200;19.508;2022-12-18T17:58:44;103809.13;;;-6.99;100.00
34241;BME280;20503;50.200;19.508;2022-12-18T18:03:54;103819.68;;;-6.94;100.00
34241;BME280;20503;50.200;19.508;2022-12-18T18:09:04;103833.03;;;-6.97;100.00
34241;BME280;20503;50.200;19.508;2022-12-18T18:14:18;103831.27;;;-6.97;100.00
34241;BME280;20503;50.200;19.508;2022-12-18T18:19:25;103831.32;;;-7.01;100.00
34241;BME280;20503;50.200;19.508;2022-12-18T18:24:38;103829.63;;;-7.07;100.00
34241;BME280;20503;50.200;19.508;2022-12-18T18:29:47;103827.82;;;-7.05;100.00
34241;BME280;20503;50.200;19.508;2022-12-18T18:34:57;103829.67;;;-7.10;100.00
34241;BME280;20503;50.200;19.508;2022-12-18T18:40:09;103829.67;;;-7.10;100.00
34241;BME280;20503;50.200;19.508;2022-12-18T18:45:19;103834.08;;;-7.07;100.00
34241;BME280;20503;50.200;19.508;2022-12-18T18:50:30;103826.91;;;-7.04;100.00
34241;BME280;20503;50.200;19.508;2022-12-18T18:55:41;103816.10;;;-6.92;100.00
34241;BME280;20503;50.200;19.508;2022-12-18T19:01:00;103834.51;;;-6.78;100.00
34241;BME280;20503;50.200;19.508;2022-12-18T19:06:04;103849.55;;;-6.74;100.00
34241;BME280;20503;50.200;19.508;2022-12-18T19:11:14;103843.32;;;-6.73;100.00
34241;BME280;20503;50.200;19.508;2022-12-18T19:16:28;103837.15;;;-6.75;100.00
34241;BME280;20503;50.200;19.508;2022-12-18T19:21:36;103856.53;;;-6.67;100.00
34241;BME280;20503;50.200;19.508;2022-12-18T19:26:46;103850.23;;;-6.62;100.00
34241;BME280;20503;50.200;19.508;2022-12-18T19:31:57;103876.80;;;-6.59;100.00
34241;BME280;20503;50.200;19.508;2022-12-18T19:37:08;103873.39;;;-6.67;100.00
34241;BME280;20503;50.200;19.508;2022-12-18T19:42:19;103882.24;;;-6.65;100.00
34241;BME280;20503;50.200;19.508;2022-12-18T19:47:30;103869.85;;;-6.69;100.00
34241;BME280;20503;50.200;19.508;2022-12-18T19:52:39;103856.58;;;-6.70;100.00
34241;BME280;20503;50.200;19.508;2022-12-18T19:57:50;103855.60;;;-6.65;100.00
34241;BME280;20503;50.200;19.508;2022-12-18T20:03:02;103867.06;;;-6.61;100.00
34241;BME280;20503;50.200;19.508;2022-12-18T20:08:13;103868.08;;;-6.70;100.00
34241;BME280;20503;50.200;19.508;2022-12-18T20:13:23;103882.36;;;-6.74;100.00
34241;BME280;20503;50.200;19.508;2022-12-18T20:18:35;103877.95;;;-6.76;100.00
34241;BME280;20503;50.200;19.508;2022-12-18T20:23:46;103848.72;;;-6.78;100.00
34241;BME280;20503;50.200;19.508;2022-12-18T20:28:56;103859.30;;;-6.73;100.00
34241;BME280;20503;50.200;19.508;2022-12-18T20:34:06;103858.46;;;-6.78;100.00
34241;BME280;20503;50.200;19.508;2022-12-18T20:39:18;103854.95;;;-6.80;100.00
34241;BME280;20503;50.200;19.508;2022-12-18T20:44:32;103847.91;;;-6.83;100.00
34241;BME280;20503;50.200;19.508;2022-12-18T20:49:40;103849.74;;;-6.88;100.00
34241;BME280;20503;50.200;19.508;2022-12-18T20:54:50;103847.98;;;-6.87;100.00
34241;BME280;20503;50.200;19.508;2022-12-18T21:00:00;103838.17;;;-6.85;100.00
34241;BME280;20503;50.200;19.508;2022-12-18T21:05:11;103817.86;;;-6.91;100.00
34241;BME280;20503;50.200;19.508;2022-12-18T21:10:22;103802.67;;;-6.84;100.00
34241;BME280;20503;50.200;19.508;2022-12-18T21:15:33;103791.00;;;-6.77;100.00
34241;BME280;20503;50.200;19.508;2022-12-18T21:20:44;103797.34;;;-6.83;100.00
34241;BME280;20503;50.200;19.508;2022-12-18T21:31:08;103787.78;;;-6.96;100.00
34241;BME280;20503;50.200;19.508;2022-12-18T21:36:16;103800.30;;;-7.02;100.00
34241;BME280;20503;50.200;19.508;2022-12-18T21:41:27;103787.96;;;-7.08;100.00
34241;BME280;20503;50.200;19.508;2022-12-18T21:46:44;103789.83;;;-7.14;100.00
34241;BME280;20503;50.200;19.508;2022-12-18T21:51:52;103802.28;;;-7.18;100.00
34241;BME280;20503;50.200;19.508;2022-12-18T21:57:01;103807.81;;;-7.31;100.00
34241;BME280;20503;50.200;19.508;2022-12-18T22:02:16;103821.16;;;-7.34;100.00
34241;BME280;20503;50.200;19.508;2022-12-18T22:07:21;103802.54;;;-7.34;100.00
34241;BME280;20503;50.200;19.508;2022-12-18T22:12:31;103801.70;;;-7.36;100.00
34241;BME280;20503;50.200;19.508;2022-12-18T22:17:42;103807.96;;;-7.40;100.00
34241;BME280;20503;50.200;19.508;2022-12-18T22:22:53;103801.76;;;-7.42;100.00
34241;BME280;20503;50.200;19.508;2022-12-18T22:28:04;103806.20;;;-7.41;100.00
34241;BME280;20503;50.200;19.508;2022-12-18T22:33:18;103792.10;;;-7.47;100.00
34241;BME280;20503;50.200;19.508;2022-12-18T22:38:25;103800.00;;;-7.43;100.00
34241;BME280;20503;50.200;19.508;2022-12-18T22:43:37;103806.27;;;-7.47;100.00
34241;BME280;20503;50.200;19.508;2022-12-18T22:48:48;103797.39;;;-7.46;100.00
34241;BME280;20503;50.200;19.508;2022-12-18T22:53:58;103798.23;;;-7.41;100.00
34241;BME280;20503;50.200;19.508;2022-12-18T22:59:15;103798.98;;;-7.31;100.00
34241;BME280;20503;50.200;19.508;2022-12-18T23:04:19;103795.41;;;-7.30;100.00
34241;BME280;20503;50.200;19.508;2022-12-18T23:09:31;103796.33;;;-7.33;100.00
34241;BME280;20503;50.200;19.508;2022-12-18T23:14:41;103794.52;;;-7.31;100.00
34241;BME280;20503;50.200;19.508;2022-12-18T23:19:52;103813.13;;;-7.29;100.00
34241;BME280;20503;50.200;19.508;2022-12-18T23:25:03;103805.12;;;-7.28;100.00
34241;BME280;20503;50.200;19.508;2022-12-18T23:30:13;103805.12;;;-7.28;100.00
34241;BME280;20503;50.200;19.508;2022-12-18T23:35:24;103814.78;;;-7.21;100.00
34241;BME280;20503;50.200;19.508;2022-12-18T23:40:35;103797.05;;;-7.22;100.00
34241;BME280;20503;50.200;19.508;2022-12-18T23:45:47;103793.62;;;-7.30;100.00
34241;BME280;20503;50.200;19.508;2022-12-18T23:50:56;103796.11;;;-7.18;100.00
34241;BME280;20503;50.200;19.508;2022-12-18T23:56:08;103805.84;;;-7.17;100.00
